Terminal Aerodrome Forecast
Issued by NWS Paducah, KY

Home | Current Version | Previous Version | Text Only | Print | Product List | Glossary On
Versions: 1 2 3 4 5 6 7 8 9 10 11 12 13 14 15 16 17 18
000
FTUS43 KPAH 290336 AAB
TAFPAH
TAF AMD
KPAH 290336Z 2904/2924 21006KT P6SM VCSH SCT060 BKN100
      TEMPO 2904/2907 3SM -TSRA BR BKN035CB
     FM290700 23007KT P6SM BKN150
     FM291500 28008KT P6SM SCT050=

USA.gov is the U.S. government's official web portal to all federal, state and local government web resources and services.